Liberal, KS

9:13 AM CST on February 14, 2016 (GMT -0600)
Liberal Municipal

Weather History for KLBL - November, 2012

Change the Weather History Date:

Thursday, November 15, 2012

  Actual Average Record
Temperature  
Mean Temperature 44 °F -  
Max Temperature 60 °F 59 °F 83 °F (1988)
Min Temperature 28 °F 32 °F 17 °F (2007)
Degree Days  
Heating Degree Days 21    
Moisture  
Dew Point 21 °F    
Average Humidity 44    
Maximum Humidity 64    
Minimum Humidity 25    
Precipitation  
Precipitation 0.00 in - - ()
Sea Level Pressure  
Sea Level Pressure 30.22 in    
Wind  
Wind Speed 14 mph (North)    
Max Wind Speed 26 mph    
Max Gust Speed 32 mph    
Visibility 10 miles    
Events      
Averages and records for this station are not official NWS values.
T = Trace of Precipitation, MM = Missing Value Source: NWS Daily Summary

Daily Weather History Graph

Daily Weather History Graph

Search for Another Location

Airport or City:

Trip Planner

Search our weather history database for the weather conditions in past years. The results will help you decide how hot, cold, wet, or windy it might be!

Date:

Astronomy

Nov. 15, 2012 Rise Set
Actual Time 7:23 AM CST 5:33 PM CST
Civil Twilight 6:55 AM CST 6:01 PM CST
Nautical Twilight 6:23 AM CST 6:32 PM CST
Astronomical Twilight 5:53 AM CST 7:03 PM CST
Moon 9:19 AM CST (11/15) 7:28 PM CST (11/15)
Length of Visible Light 11h 06m
Length of Day
10h 10m
Waxing Crescent, 5% of the Moon is Illuminated
Nov 15
Waxing Crescent
Nov 20
First Quarter
Nov 28
Full
Dec 6
Last Quarter
Dec 13
New

Hourly Weather History & Observations

Time (CST) Temp. Windchill Dew Point Humidity Pressure Visibility Wind Dir Wind Speed Gust Speed Precip Events Conditions
12:15 AM 39.2 °F 30.8 °F 17.6 °F 42% 30.10 in 10.0 mi SSW 15.0 mph - N/A   Clear
12:35 AM 41.0 °F 33.1 °F 19.4 °F 42% 30.09 in 10.0 mi South 15.0 mph - N/A   Clear
12:55 AM 41.0 °F 33.5 °F 17.6 °F 39% 30.08 in 10.0 mi South 13.8 mph - N/A   Clear
1:15 AM 39.2 °F 31.2 °F 17.6 °F 42% 30.09 in 10.0 mi South 13.8 mph - N/A   Clear
1:35 AM 37.4 °F 29.3 °F 17.6 °F 45% 30.08 in 10.0 mi South 12.7 mph - N/A   Clear
1:55 AM 37.4 °F 28.9 °F 17.6 °F 45% 30.08 in 10.0 mi SSW 13.8 mph - N/A   Clear
2:15 AM 37.4 °F 28.9 °F 17.6 °F 45% 30.07 in 10.0 mi South 13.8 mph - N/A   Clear
2:35 AM 35.6 °F 26.6 °F 15.8 °F 44% 30.07 in 10.0 mi SSW 13.8 mph - N/A   Clear
2:55 AM 37.4 °F 29.8 °F 17.6 °F 45% 30.07 in 10.0 mi SSW 11.5 mph - N/A   Clear
3:15 AM 33.8 °F 26.4 °F 15.8 °F 48% 30.08 in 10.0 mi SW 9.2 mph - N/A   Clear
3:35 AM 33.8 °F 27.7 °F 15.8 °F 48% 30.09 in 10.0 mi SW 6.9 mph - N/A   Clear
3:55 AM 33.8 °F 26.4 °F 15.8 °F 48% 30.09 in 10.0 mi SW 9.2 mph - N/A   Clear
4:15 AM 30.2 °F 24.3 °F 14.0 °F 51% 30.08 in 10.0 mi SW 5.8 mph - N/A   Clear
4:35 AM 28.4 °F 21.2 °F 14.0 °F 55% 30.08 in 10.0 mi WSW 6.9 mph - N/A   Clear
4:55 AM 30.2 °F 22.6 °F 15.8 °F 55% 30.08 in 10.0 mi WNW 8.1 mph - N/A   Clear
5:15 AM 28.4 °F 19.1 °F 14.0 °F 55% 30.09 in 10.0 mi NW 10.4 mph - N/A   Clear
5:35 AM 30.2 °F 19.8 °F 15.8 °F 55% 30.10 in 10.0 mi NW 13.8 mph - N/A   Clear
5:55 AM 30.2 °F 19.8 °F 15.8 °F 55% 30.10 in 10.0 mi NW 13.8 mph - N/A   Clear
6:15 AM 30.2 °F 20.2 °F 15.8 °F 55% 30.11 in 10.0 mi NNW 12.7 mph - N/A   Clear
6:35 AM 30.2 °F 19.8 °F 15.8 °F 55% 30.12 in 10.0 mi NNW 13.8 mph - N/A   Clear
6:55 AM 30.2 °F 19.3 °F 15.8 °F 55% 30.13 in 10.0 mi NNW 15.0 mph - N/A   Clear
7:15 AM 28.4 °F 17.5 °F 15.8 °F 59% 30.14 in 10.0 mi NNW 13.8 mph - N/A   Clear
7:35 AM 28.4 °F 18.0 °F 15.8 °F 59% 30.14 in 10.0 mi North 12.7 mph - N/A   Clear
7:55 AM 30.2 °F 19.8 °F 17.6 °F 60% 30.16 in 10.0 mi North 13.8 mph - N/A   Clear
8:15 AM 32.0 °F 20.8 °F 17.6 °F 55% 30.18 in 10.0 mi NNW 17.3 mph - N/A   Clear
8:35 AM 33.8 °F 23.2 °F 19.4 °F 56% 30.20 in 10.0 mi NNW 17.3 mph - N/A   Clear
8:55 AM 35.6 °F 25.9 °F 19.4 °F 52% 30.20 in 10.0 mi North 16.1 mph - N/A   Clear
9:15 AM 37.4 °F 27.8 °F 21.2 °F 52% 30.21 in 10.0 mi North 17.3 mph - N/A   Clear
9:35 AM 39.2 °F 30.5 °F 23.0 °F 52% 30.22 in 10.0 mi North 16.1 mph - N/A   Clear
9:55 AM 42.8 °F 34.8 °F 24.8 °F 49% 30.23 in 10.0 mi NNE 17.3 mph - N/A   Clear
10:15 AM 46.4 °F 38.5 °F 26.6 °F 46% 30.23 in 10.0 mi NNE 21.9 mph 26.5 mph N/A   Clear
10:35 AM 48.2 °F - 26.6 °F 43% 30.25 in 10.0 mi NNE 17.3 mph - N/A   Clear
10:55 AM 51.8 °F - 26.6 °F 38% 30.25 in 10.0 mi NNE 23.0 mph 26.5 mph N/A   Clear
11:15 AM 51.8 °F - 26.6 °F 38% 30.26 in 10.0 mi NNE 20.7 mph - N/A   Clear
11:35 AM 53.6 °F - 26.6 °F 35% 30.25 in 10.0 mi NNE 19.6 mph - N/A   Clear
11:55 AM 55.4 °F - 28.4 °F 36% 30.25 in 10.0 mi NNE 21.9 mph - N/A   Clear
12:15 PM 57.2 °F - 28.4 °F 33% 30.25 in 10.0 mi North 23.0 mph 27.6 mph N/A   Clear
12:35 PM 57.2 °F - 26.6 °F 31% 30.24 in 10.0 mi NNE 20.7 mph 27.6 mph N/A   Clear
12:55 PM 57.2 °F - 26.6 °F 31% 30.24 in 10.0 mi North 23.0 mph 29.9 mph N/A   Clear
1:15 PM 57.2 °F - 26.6 °F 31% 30.23 in 10.0 mi NNE 24.2 mph - N/A   Clear
1:35 PM 57.2 °F - 26.6 °F 31% 30.23 in 10.0 mi NNE 25.3 mph 31.1 mph N/A   Clear
1:55 PM 59.0 °F - 26.6 °F 29% 30.23 in 10.0 mi NNE 24.2 mph 32.2 mph N/A   Clear
2:15 PM 60.8 °F - 26.6 °F 27% 30.23 in 10.0 mi North 26.5 mph 29.9 mph N/A   Clear
2:35 PM 60.8 °F - 24.8 °F 25% 30.23 in 10.0 mi NNE 21.9 mph 32.2 mph N/A   Clear
2:55 PM 60.8 °F - 26.6 °F 27% 30.23 in 10.0 mi NNE 23.0 mph 26.5 mph N/A   Clear
3:15 PM 60.8 °F - 24.8 °F 25% 30.24 in 10.0 mi NNE 23.0 mph 27.6 mph N/A   Clear
3:35 PM 60.8 °F - 24.8 °F 25% 30.24 in 10.0 mi NNE 20.7 mph 27.6 mph N/A   Clear
3:55 PM 60.8 °F - 24.8 °F 25% 30.25 in 10.0 mi NE 19.6 mph 26.5 mph N/A   Clear
4:15 PM 59.0 °F - 23.0 °F 25% 30.25 in 10.0 mi NNE 23.0 mph - N/A   Clear
4:35 PM 57.2 °F - 23.0 °F 27% 30.26 in 10.0 mi NNE 19.6 mph - N/A   Clear
4:55 PM 57.2 °F - 23.0 °F 27% 30.28 in 10.0 mi NNE 18.4 mph 25.3 mph N/A   Clear
5:15 PM 55.4 °F - 23.0 °F 29% 30.29 in 10.0 mi NNE 16.1 mph 19.6 mph N/A   Clear
5:35 PM 53.6 °F - 23.0 °F 30% 30.30 in 10.0 mi NNE 12.7 mph - N/A   Clear
5:55 PM 51.8 °F - 21.2 °F 30% 30.30 in 10.0 mi NNE 11.5 mph - N/A   Clear
6:15 PM 50.0 °F - 21.2 °F 32% 30.32 in 10.0 mi NNE 9.2 mph - N/A   Clear
6:35 PM 48.2 °F - 21.2 °F 34% 30.33 in 10.0 mi NNE 10.4 mph - N/A   Clear
6:55 PM 46.4 °F 41.5 °F 23.0 °F 40% 30.34 in 10.0 mi NNE 10.4 mph - N/A   Clear
7:15 PM 46.4 °F 41.5 °F 23.0 °F 40% 30.34 in 10.0 mi NE 10.4 mph - N/A   Clear
7:35 PM 46.4 °F 41.5 °F 24.8 °F 43% 30.35 in 10.0 mi NE 10.4 mph - N/A   Clear
7:55 PM 46.4 °F 41.5 °F 24.8 °F 43% 30.35 in 10.0 mi NE 10.4 mph - N/A   Clear
8:15 PM 46.4 °F 41.5 °F 24.8 °F 43% 30.36 in 10.0 mi NE 10.4 mph - N/A   Clear
8:35 PM 44.6 °F 39.2 °F 24.8 °F 46% 30.36 in 10.0 mi ENE 10.4 mph - N/A   Clear
8:55 PM 44.6 °F 40.7 °F 24.8 °F 46% 30.36 in 10.0 mi East 6.9 mph - N/A   Clear
9:15 PM 42.8 °F 38.6 °F 26.6 °F 53% 30.37 in 10.0 mi North 6.9 mph - N/A   Clear
9:35 PM 37.4 °F 33.8 °F 21.2 °F 52% 30.37 in 10.0 mi North 4.6 mph - N/A   Clear
9:55 PM 35.6 °F 31.7 °F 19.4 °F 52% 30.37 in 10.0 mi North 4.6 mph - N/A   Clear
10:15 PM 33.8 °F 28.6 °F 19.4 °F 56% 30.37 in 10.0 mi North 5.8 mph - N/A   Clear
10:35 PM 32.0 °F 25.6 °F 19.4 °F 60% 30.37 in 10.0 mi North 6.9 mph - N/A   Clear
10:55 PM 32.0 °F 25.6 °F 19.4 °F 60% 30.38 in 10.0 mi North 6.9 mph - N/A   Clear
11:15 PM 28.4 °F 20.4 °F 17.6 °F 64% 30.38 in 10.0 mi North 8.1 mph - N/A   Clear
11:35 PM 30.2 °F 24.3 °F 19.4 °F 64% 30.39 in 10.0 mi North 5.8 mph - N/A   Clear
11:55 PM 30.2 °F 22.6 °F 19.4 °F 64% 30.39 in 10.0 mi North 8.1 mph - N/A   Clear